Time;durP1;ratioP1;P1;durP2;ratioP2;P2;SDS_P1;SDS_P2;PMS_P1;PMS_P2;Temp;Humidity;BMP_temperature;BMP_pressure;BME280_temperature;BME280_humidity;BME280_pressure;Samples;Min_cycle;Max_cycle;Signal;HPM_P1;HPM_P2
2022/10/02 00:02:02;;;;;;;;;;;;;;;14.55;59.98;99454.94;4353325;32;20010;-95
2022/10/02 00:04:39;;;;;;;;;;;;;;;14.57;59.98;99454.84;4379462;32;19983;-93
2022/10/02 00:07:06;;;;;;;;;;;;;;;14.72;59.99;99457.50;4379820;32;19955;-95
2022/10/02 00:09:39;;;;;;;;;;;;;;;14.50;59.98;99472.66;4354487;32;19983;-92
2022/10/02 00:12:07;;;;;;;;;;;;;;;14.45;59.97;99474.69;4354269;32;20050;-93
2022/10/02 00:14:33;;;;;;;;;;;;;;;14.46;59.97;99483.37;4356765;32;20002;-94
2022/10/02 00:16:59;;;;;;;;;;;;;;;14.42;59.97;99483.47;4354334;32;20032;-94
2022/10/02 00:19:26;;;;;;;;;;;;;;;14.42;59.97;99483.47;4359538;32;19995;-96
2022/10/02 00:22:00;;;;;;;;;;;;;;;14.43;59.98;99495.72;4362119;32;20011;-96
2022/10/02 00:25:07;;;;;;;;;;;;;;;14.39;59.97;99488.88;4389501;32;19981;-96
2022/10/02 00:27:38;;;;;;;;;;;;;;;14.42;59.97;99486.09;4329977;33;20014;-96
2022/10/02 00:30:13;;;;;;;;;;;;;;;14.57;59.98;99487.12;4344663;33;19960;-96
2022/10/02 00:33:05;;;;;;;;;;;;;;;14.50;59.97;99498.84;4343400;33;19964;-96
2022/10/02 00:35:42;;;;;;;;;;;;;;;14.53;59.98;99493.44;4363941;32;20002;-96
2022/10/02 00:38:23;;;;;;;;;;;;;;;14.43;59.97;99503.56;4385461;32;19994;-94
2022/10/02 00:40:58;;;;;;;;;;;;;;;14.60;59.98;99509.69;4368645;32;19959;-93
2022/10/02 00:43:32;;;;;;;;;;;;;;;14.59;59.98;99508.00;4394158;32;19959;-91
2022/10/02 00:46:03;;;;;;;;;;;;;;;14.53;59.98;99509.16;4369348;32;19975;-94
2022/10/02 00:48:34;;;;;;;;;;;;;;;14.61;59.98;99509.59;4362229;32;20750;-95
2022/10/02 00:51:04;;;;;;;;;;;;;;;14.59;59.98;99511.47;4384059;32;20026;-96
2022/10/02 00:53:29;;;;;;;;;;;;;;;14.62;59.98;99511.28;4383737;32;20050;-96
2022/10/02 00:55:56;;;;;;;;;;;;;;;14.72;59.99;99509.06;4384337;32;20269;-96
2022/10/02 00:58:47;;;;;;;;;;;;;;;14.58;59.98;99503.69;4358948;32;20368;-94
2022/10/02 01:01:22;;;;;;;;;;;;;;;14.60;59.98;99509.69;4367899;32;19983;-94
2022/10/02 01:03:55;;;;;;;;;;;;;;;14.55;59.98;99506.47;4381563;32;19979;-96
2022/10/02 01:06:24;;;;;;;;;;;;;;;14.61;59.98;99501.75;4369815;32;20026;-96
2022/10/02 01:08:50;;;;;;;;;;;;;;;14.57;59.98;99515.09;4361214;32;19951;-94
2022/10/02 01:11:16;;;;;;;;;;;;;;;14.54;59.98;99512.63;4357276;32;19991;-96
2022/10/02 01:13:44;;;;;;;;;;;;;;;14.52;59.97;99509.25;4360536;32;20316;-96
2022/10/02 01:16:13;;;;;;;;;;;;;;;14.54;59.98;99516.09;4383314;32;20007;-95
2022/10/02 01:18:38;;;;;;;;;;;;;;;14.63;59.98;99520.84;4383546;32;20011;-96
2022/10/02 01:21:05;;;;;;;;;;;;;;;14.50;59.98;99518.97;4380195;32;20262;-96
2022/10/02 01:23:44;;;;;;;;;;;;;;;14.59;59.98;99521.09;4354849;32;19994;-95
2022/10/02 01:26:09;;;;;;;;;;;;;;;14.74;59.99;99533.41;4355462;32;20113;-96
2022/10/02 01:28:41;;;;;;;;;;;;;;;14.93;60.00;99535.91;4357051;32;19987;-96
2022/10/02 01:31:08;;;;;;;;;;;;;;;14.91;60.00;99538.59;4385203;32;19993;-96
2022/10/02 01:33:34;;;;;;;;;;;;;;;14.78;59.98;99553.25;4356851;32;20317;-94
2022/10/02 01:36:00;;;;;;;;;;;;;;;14.97;60.00;99551.37;4355171;32;19990;-96
2022/10/02 01:38:26;;;;;;;;;;;;;;;14.98;60.00;99560.09;4379616;32;19974;-95
2022/10/02 01:40:51;;;;;;;;;;;;;;;14.98;60.00;99562.72;4354974;32;20364;-95
2022/10/02 01:43:43;;;;;;;;;;;;;;;15.01;60.00;99562.53;4353969;32;20036;-95
2022/10/02 01:46:18;;;;;;;;;;;;;;;14.88;60.00;99566.72;4365167;32;20367;-93
2022/10/02 01:48:51;;;;;;;;;;;;;;;14.87;60.00;99575.50;4378321;32;20028;-96
2022/10/02 01:51:35;;;;;;;;;;;;;;;14.92;59.99;99576.16;4355361;32;19987;-93
2022/10/02 01:54:04;;;;;;;;;;;;;;;14.97;60.00;99590.69;4378578;32;19956;-95
2022/10/02 01:56:48;;;;;;;;;;;;;;;15.04;60.01;99599.91;4378772;32;20052;-95
2022/10/02 01:59:20;;;;;;;;;;;;;;;14.99;60.00;99615.03;4378847;32;19985;-94
2022/10/02 02:02:07;;;;;;;;;;;;;;;14.93;60.00;99604.87;4380154;32;20025;-95
2022/10/02 02:04:36;;;;;;;;;;;;;;;14.91;60.00;99616.38;4353984;32;19995;-95
2022/10/02 02:07:13;;;;;;;;;;;;;;;14.86;60.00;99615.75;4354204;32;20050;-95
2022/10/02 02:09:42;;;;;;;;;;;;;;;14.98;60.01;99615.97;4354013;32;20030;-94
2022/10/02 02:12:14;;;;;;;;;;;;;;;14.94;59.99;99629.31;4354730;32;20062;-96
2022/10/02 02:14:46;;;;;;;;;;;;;;;14.85;59.99;99625.38;4362222;32;20009;-93
2022/10/02 02:17:13;;;;;;;;;;;;;;;15.01;59.99;99628.91;4355913;32;20008;-95
2022/10/02 02:19:40;;;;;;;;;;;;;;;15.02;60.01;99622.75;4356438;32;20645;-94
2022/10/02 02:22:12;;;;;;;;;;;;;;;14.69;59.98;99627.97;4369559;32;20001;-96
2022/10/02 02:24:38;;;;;;;;;;;;;;;14.86;59.99;99624.47;4382613;32;20363;-95
2022/10/02 02:27:04;;;;;;;;;;;;;;;14.74;59.98;99620.72;4358423;32;20620;-94
2022/10/02 02:29:31;;;;;;;;;;;;;;;14.73;59.99;99634.72;4356569;32;19983;-96
2022/10/02 02:32:07;;;;;;;;;;;;;;;14.69;59.98;99627.97;4391054;32;19954;-96
2022/10/02 02:34:37;;;;;;;;;;;;;;;14.71;59.98;99638.38;4370726;32;19999;-96
2022/10/02 02:37:10;;;;;;;;;;;;;;;14.62;59.97;99628.31;4357717;32;19995;-96
2022/10/02 02:39:41;;;;;;;;;;;;;;;14.60;59.98;99627.56;4358103;32;20336;-95
2022/10/02 02:42:06;;;;;;;;;;;;;;;14.76;59.99;99638.13;4356781;32;20001;-96
2022/10/02 02:44:32;;;;;;;;;;;;;;;14.77;59.98;99638.03;4357435;32;19994;-95
2022/10/02 02:47:02;;;;;;;;;;;;;;;14.53;59.98;99637.50;4359901;32;20017;-95
2022/10/02 02:49:48;;;;;;;;;;;;;;;14.49;59.98;99640.34;4356490;32;19983;-96
2022/10/02 02:52:18;;;;;;;;;;;;;;;14.47;59.97;99643.06;4357144;32;20058;-95
2022/10/02 02:54:53;;;;;;;;;;;;;;;14.57;59.98;99646.06;4368733;32;19967;-96
2022/10/02 02:57:22;;;;;;;;;;;;;;;14.45;59.97;99646.69;4358497;32;20723;-96
2022/10/02 02:59:49;;;;;;;;;;;;;;;14.40;59.96;99655.56;4370250;32;20688;-95
2022/10/02 03:02:14;;;;;;;;;;;;;;;14.37;59.96;99649.63;4358063;32;20017;-95
2022/10/02 03:04:39;;;;;;;;;;;;;;;14.21;59.96;99659.16;4356622;32;20010;-94
2022/10/02 03:07:04;;;;;;;;;;;;;;;14.27;59.96;99659.72;4357196;32;20320;-95
2022/10/02 03:09:31;;;;;;;;;;;;;;;14.49;59.98;99658.69;4355516;32;20249;-94
2022/10/02 03:11:56;;;;;;;;;;;;;;;14.40;59.98;99658.16;4356259;32;19994;-96
2022/10/02 03:14:24;;;;;;;;;;;;;;;14.54;59.98;99665.37;4381747;32;20002;-95
2022/10/02 03:16:56;;;;;;;;;;;;;;;14.45;59.97;99665.00;4382668;32;19959;-95
2022/10/02 03:19:36;;;;;;;;;;;;;;;14.38;59.97;99667.88;4383253;32;19974;-95
2022/10/02 03:22:04;;;;;;;;;;;;;;;14.24;59.96;99670.34;4357120;32;19955;-95
2022/10/02 03:24:34;;;;;;;;;;;;;;;14.48;59.98;99668.31;4360448;32;20006;-96
2022/10/02 03:27:04;;;;;;;;;;;;;;;14.40;59.96;99676.50;4363191;32;20014;-93
2022/10/02 03:29:59;;;;;;;;;;;;;;;14.34;59.97;99676.81;4369197;32;19970;-92
2022/10/02 03:32:30;;;;;;;;;;;;;;;14.46;59.97;99685.03;4382324;32;19959;-89
2022/10/02 03:34:56;;;;;;;;;;;;;;;14.39;59.96;99687.91;4394881;32;19959;-91
2022/10/02 03:37:28;;;;;;;;;;;;;;;14.49;59.98;99685.72;4370031;32;19978;-92
2022/10/02 03:39:59;;;;;;;;;;;;;;;14.53;59.97;99694.28;4394829;32;19947;-97
2022/10/02 03:42:35;;;;;;;;;;;;;;;14.54;59.98;99695.97;4367727;32;19981;-96
2022/10/02 03:45:03;;;;;;;;;;;;;;;14.47;59.97;99700.69;4390365;32;19963;-96
2022/10/02 03:47:29;;;;;;;;;;;;;;;14.51;59.98;99698.75;4374606;32;20018;-96
2022/10/02 03:49:54;;;;;;;;;;;;;;;14.61;59.98;99703.44;4360281;32;19978;-96
2022/10/02 03:52:24;;;;;;;;;;;;;;;14.57;59.98;99704.53;4359110;32;20014;-95
2022/10/02 03:58:08;;;;;;;;;;;;;;;14.67;59.99;99712.81;4391562;32;20054;-96
2022/10/02 04:00:55;;;;;;;;;;;;;;;14.54;59.98;99709.91;4378564;32;20002;-96
2022/10/02 04:03:51;;;;;;;;;;;;;;;14.78;59.98;99707.88;4135606;32;7067672;-96
2022/10/02 04:10:01;;;;;;;;;;;;;;;14.68;59.98;99712.72;4333659;33;20016;-96
2022/10/02 04:15:59;;;;;;;;;;;;;;;14.61;59.98;99715.69;4304533;33;20015;-96
2022/10/02 04:19:11;;;;;;;;;;;;;;;14.62;59.97;99717.41;4290660;33;20050;-96
2022/10/02 04:21:58;;;;;;;;;;;;;;;14.67;59.99;99733.75;4299823;33;19973;-95
2022/10/02 04:30:47;;;;;;;;;;;;;;;14.85;59.99;99724.13;4289296;33;19968;-96
2022/10/02 04:33:22;;;;;;;;;;;;;;;14.78;59.98;99728.81;4291077;33;19985;-96
2022/10/02 04:36:16;;;;;;;;;;;;;;;14.75;59.98;99739.47;4289371;33;19997;-92
2022/10/02 04:39:01;;;;;;;;;;;;;;;14.74;59.99;99743.00;4356840;27;20030;-96
2022/10/02 04:41:31;;;;;;;;;;;;;;;14.64;59.99;99754.84;4333656;32;20010;-96
2022/10/02 04:44:42;;;;;;;;;;;;;;;14.45;59.97;99761.91;4350121;32;19971;-96
2022/10/02 04:47:07;;;;;;;;;;;;;;;14.52;59.98;99769.41;4360787;32;20013;-96
2022/10/02 04:49:54;;;;;;;;;;;;;;;14.63;59.98;99780.19;4378336;32;19951;-95
2022/10/02 04:52:22;;;;;;;;;;;;;;;14.50;59.97;99780.87;4364026;32;19979;-96
2022/10/02 04:54:51;;;;;;;;;;;;;;;14.59;59.98;99781.25;4357427;32;20022;-96
2022/10/02 04:57:35;;;;;;;;;;;;;;;14.57;59.98;99785.72;4346390;33;20353;-96
2022/10/02 05:00:07;;;;;;;;;;;;;;;14.68;59.99;99800.97;4352325;33;19983;-95
2022/10/02 05:02:32;;;;;;;;;;;;;;;14.57;59.98;99806.69;4336836;33;19993;-93
2022/10/02 05:04:57;;;;;;;;;;;;;;;14.61;59.98;99804.75;4349711;33;19995;-96
2022/10/02 05:07:28;;;;;;;;;;;;;;;14.66;59.98;99808.84;4350381;33;20035;-95
2022/10/02 05:10:06;;;;;;;;;;;;;;;14.73;59.99;99805.03;4337834;33;20003;-95
2022/10/02 05:12:34;;;;;;;;;;;;;;;14.88;59.99;99819.16;4349998;33;19991;-94
2022/10/02 05:15:09;;;;;;;;;;;;;;;14.88;60.00;99805.22;4350020;33;20583;-95
2022/10/02 05:17:35;;;;;;;;;;;;;;;14.88;60.00;99813.91;4338646;33;19995;-94
2022/10/02 05:20:09;;;;;;;;;;;;;;;14.84;59.99;99816.75;4350538;33;20357;-95
2022/10/02 05:22:40;;;;;;;;;;;;;;;14.87;60.00;99821.84;4349840;33;20573;-96
2022/10/02 05:25:18;;;;;;;;;;;;;;;14.66;59.99;99814.09;4337504;33;19993;-95
2022/10/02 05:27:46;;;;;;;;;;;;;;;14.94;60.00;99816.25;4349888;33;19967;-96
2022/10/02 05:30:17;;;;;;;;;;;;;;;15.02;60.00;99815.88;4350168;33;19990;-96
2022/10/02 05:32:48;;;;;;;;;;;;;;;15.01;60.00;99820.28;4337793;33;20031;-94
2022/10/02 05:35:19;;;;;;;;;;;;;;;15.06;60.00;99820.03;4338119;33;20039;-96
2022/10/02 05:37:49;;;;;;;;;;;;;;;15.02;60.01;99821.97;4352765;33;19995;-96
2022/10/02 05:40:20;;;;;;;;;;;;;;;15.46;60.02;99815.44;4352759;33;19984;-96
2022/10/02 05:42:57;;;;;;;;;;;;;;;15.38;60.02;99820.19;4338888;33;20047;-96
2022/10/02 05:45:27;;;;;;;;;;;;;;;15.48;60.03;99824.06;4341261;33;19971;-96
2022/10/02 05:47:53;;;;;;;;;;;;;;;15.36;60.02;99818.50;4340267;33;20026;-96
2022/10/02 05:50:21;;;;;;;;;;;;;;;15.64;60.04;99830.28;4339638;33;20013;-96
2022/10/02 05:52:49;;;;;;;;;;;;;;;15.36;60.02;99825.53;4340579;33;19968;-96
2022/10/02 05:55:35;;;;;;;;;;;;;;;15.44;60.03;99833.03;4356776;33;19964;-96
2022/10/02 05:58:04;;;;;;;;;;;;;;;15.39;60.02;99838.50;4358197;32;20181;-96
2022/10/02 06:00:39;;;;;;;;;;;;;;;15.50;60.03;99844.06;4357762;32;19952;-96
2022/10/02 06:03:16;;;;;;;;;;;;;;;15.48;60.03;99842.44;4349161;33;19955;-96
2022/10/02 06:05:54;;;;;;;;;;;;;;;15.34;60.02;99849.22;4344216;33;19979;-96
2022/10/02 06:08:25;;;;;;;;;;;;;;;15.40;60.03;99847.22;4356886;33;19978;-96
2022/10/02 06:10:53;;;;;;;;;;;;;;;15.51;60.03;99855.38;4345996;33;19983;-95
2022/10/02 06:13:45;;;;;;;;;;;;;;;15.48;60.03;99863.41;4344035;33;19993;-96
2022/10/02 06:16:16;;;;;;;;;;;;;;;15.54;60.03;99861.34;4354349;33;19964;-94
2022/10/02 06:18:42;;;;;;;;;;;;;;;15.57;60.04;99865.56;4352145;32;19987;-92
2022/10/02 06:21:21;;;;;;;;;;;;;;;15.70;60.05;99869.31;4352479;33;19991;-89
2022/10/02 06:23:48;;;;;;;;;;;;;;;15.72;60.04;99871.84;4352684;33;19956;-90
2022/10/02 06:26:24;;;;;;;;;;;;;;;15.89;60.05;99879.72;4345159;33;19995;-93
2022/10/02 06:28:55;;;;;;;;;;;;;;;15.89;60.05;99877.09;4341885;33;20013;-93
2022/10/02 06:31:24;;;;;;;;;;;;;;;15.93;60.05;99883.88;4341251;33;19982;-94
2022/10/02 06:33:50;;;;;;;;;;;;;;;15.98;60.05;99881.84;4338194;33;19996;-94
2022/10/02 06:36:16;;;;;;;;;;;;;;;15.98;60.05;99887.13;4337370;33;20340;-94
2022/10/02 06:39:00;;;;;;;;;;;;;;;15.93;60.04;99895.22;4347324;33;20007;-94
2022/10/02 06:41:28;;;;;;;;;;;;;;;15.93;60.06;99897.84;4353113;32;20380;-92
2022/10/02 06:44:13;;;;;;;;;;;;;;;16.07;60.06;99904.16;4342780;33;20042;-94
2022/10/02 06:46:43;;;;;;;;;;;;;;;16.10;60.06;99899.63;4349706;32;20611;-91
2022/10/02 06:49:15;;;;;;;;;;;;;;;16.05;60.06;99903.38;4322248;32;19963;-91
2022/10/02 06:51:53;;;;;;;;;;;;;;;16.08;60.05;99909.31;4336841;33;19966;-94
2022/10/02 06:54:33;;;;;;;;;;;;;;;16.25;60.07;99916.31;4340850;32;20360;-93
2022/10/02 06:57:07;;;;;;;;;;;;;;;16.32;60.08;99927.34;4349018;32;20006;-93
2022/10/02 06:59:43;;;;;;;;;;;;;;;16.36;60.07;99923.66;4349438;32;20009;-95
2022/10/02 07:02:23;;;;;;;;;;;;;;;16.40;60.08;99927.81;4324972;33;20338;-94
2022/10/02 07:05:04;;;;;;;;;;;;;;;16.37;60.07;99933.25;4336437;33;19984;-93
2022/10/02 07:07:33;;;;;;;;;;;;;;;16.43;60.08;99932.91;4345367;32;20043;-94
2022/10/02 07:10:02;;;;;;;;;;;;;;;16.57;60.10;99948.78;4327505;33;20051;-92
2022/10/02 07:12:46;;;;;;;;;;;;;;;16.64;60.10;99955.41;4322291;33;19989;-94
2022/10/02 07:15:20;;;;;;;;;;;;;;;16.84;60.10;99947.34;4339005;33;19994;-90
2022/10/02 07:17:48;;;;;;;;;;;;;;;17.09;60.12;99938.94;4336899;33;20071;-93
2022/10/02 07:20:29;;;;;;;;;;;;;;;17.28;60.12;99946.66;4336383;33;20007;-95
2022/10/02 07:23:12;;;;;;;;;;;;;;;17.01;60.11;99949.00;4348874;33;20571;-96
2022/10/02 07:25:41;;;;;;;;;;;;;;;16.74;60.10;99940.84;4359001;32;19975;-94
2022/10/02 07:28:12;;;;;;;;;;;;;;;16.71;60.10;99938.41;4329470;33;19972;-94
2022/10/02 07:31:00;;;;;;;;;;;;;;;17.04;60.11;99943.62;4327020;33;20013;-92
2022/10/02 07:33:47;;;;;;;;;;;;;;;17.17;60.12;99938.50;4333532;33;19990;-93
2022/10/02 07:36:36;;;;;;;;;;;;;;;17.30;60.12;99950.03;4336474;33;19994;-94
2022/10/02 07:39:04;;;;;;;;;;;;;;;17.40;60.13;99945.94;4343539;32;19972;-96
2022/10/02 07:41:37;;;;;;;;;;;;;;;17.21;60.12;99947.06;4370403;32;19971;-93
2022/10/02 07:44:03;;;;;;;;;;;;;;;17.43;60.13;99956.28;4351123;33;19965;-93
2022/10/02 07:46:37;;;;;;;;;;;;;;;17.38;60.12;99958.34;4356822;32;19984;-91
2022/10/02 07:49:13;;;;;;;;;;;;;;;17.41;60.13;99955.53;4350249;32;20018;-94
2022/10/02 07:51:57;;;;;;;;;;;;;;;17.49;60.14;99947.19;4325506;33;19972;-94
2022/10/02 07:54:32;;;;;;;;;;;;;;;17.67;60.14;99946.16;4338156;33;20011;-93
2022/10/02 07:56:59;;;;;;;;;;;;;;;17.85;60.15;99953.94;4330303;32;19959;-94
2022/10/02 07:59:25;;;;;;;;;;;;;;;17.99;60.16;99959.25;4330456;33;20034;-95
2022/10/02 08:01:50;;;;;;;;;;;;;;;17.99;60.16;99954.00;4324917;33;20036;-95
2022/10/02 08:04:28;;;;;;;;;;;;;;;17.98;60.16;99968.94;4331557;32;27589;-91
2022/10/02 08:06:57;;;;;;;;;;;;;;;17.78;60.14;99974.53;4326548;33;19980;-92
2022/10/02 08:09:41;;;;;;;;;;;;;;;17.75;60.15;99972.91;4339580;33;20017;-91
2022/10/02 08:12:15;;;;;;;;;;;;;;;17.69;60.14;99968.00;4347507;32;19995;-93
2022/10/02 08:14:41;;;;;;;;;;;;;;;17.80;60.15;99975.28;4354508;32;19948;-93
2022/10/02 08:17:30;;;;;;;;;;;;;;;17.88;60.16;99967.78;4324644;33;20031;-93
2022/10/02 08:19:58;;;;;;;;;;;;;;;17.59;60.14;99971.22;4346965;33;19995;-92
2022/10/02 08:22:24;;;;;;;;;;;;;;;17.78;60.14;99966.62;4337000;33;20345;-92
2022/10/02 08:25:01;;;;;;;;;;;;;;;17.76;60.15;99963.25;4336822;33;19997;-91
2022/10/02 08:27:28;;;;;;;;;;;;;;;17.93;60.16;99968.34;4337326;33;19956;-94
2022/10/02 08:29:54;;;;;;;;;;;;;;;17.90;60.15;99976.44;4324621;33;20333;-92
2022/10/02 08:32:21;;;;;;;;;;;;;;;17.98;60.16;99982.12;4326421;33;19991;-91
2022/10/02 08:34:46;;;;;;;;;;;;;;;17.93;60.16;99978.87;4325819;33;19979;-93
2022/10/02 08:37:23;;;;;;;;;;;;;;;17.72;60.15;99980.13;4338014;32;20019;-95
2022/10/02 08:40:07;;;;;;;;;;;;;;;17.60;60.14;99991.34;4327813;32;20050;-93
2022/10/02 08:42:53;;;;;;;;;;;;;;;17.54;60.13;99984.66;4339995;33;19987;-89
2022/10/02 08:45:34;;;;;;;;;;;;;;;17.62;60.15;99987.69;4352691;33;20633;-93
2022/10/02 08:48:22;;;;;;;;;;;;;;;17.67;60.15;99979.50;4355118;32;19956;-90
2022/10/02 08:50:51;;;;;;;;;;;;;;;17.90;60.16;99976.44;4348439;32;19988;-93
2022/10/02 08:53:35;;;;;;;;;;;;;;;17.88;60.16;99977.47;4323347;33;19999;-91
2022/10/02 08:56:19;;;;;;;;;;;;;;;17.84;60.15;99984.69;4333599;33;20041;-90
2022/10/02 08:58:44;;;;;;;;;;;;;;;18.01;60.16;99987.19;4333805;33;20369;-93
2022/10/02 09:01:22;;;;;;;;;;;;;;;18.14;60.17;99989.94;4334035;33;20031;-91
2022/10/02 09:04:02;;;;;;;;;;;;;;;18.24;60.18;99987.63;4334289;33;20018;-91
2022/10/02 09:06:46;;;;;;;;;;;;;;;18.31;60.17;99975.75;4334423;33;20029;-93
2022/10/02 09:09:31;;;;;;;;;;;;;;;18.38;60.19;99980.56;4334585;33;20092;-92
2022/10/02 09:12:15;;;;;;;;;;;;;;;18.47;60.19;99987.09;4349368;32;20004;-91
2022/10/02 09:14:47;;;;;;;;;;;;;;;18.70;60.21;99980.44;4357197;32;19959;-93
2022/10/02 09:17:16;;;;;;;;;;;;;;;18.70;60.21;99968.09;4350114;33;19968;-92
2022/10/02 09:19:50;;;;;;;;;;;;;;;18.75;60.20;99980.16;4324424;33;20002;-91
2022/10/02 09:22:34;;;;;;;;;;;;;;;18.80;60.21;99986.81;4336342;33;20013;-91
2022/10/02 09:25:18;;;;;;;;;;;;;;;18.77;60.21;99994.94;4335054;33;20357;-92
2022/10/02 09:28:03;;;;;;;;;;;;;;;18.92;60.22;99980.78;4349860;33;20423;-92
2022/10/02 09:31:07;;;;;;;;;;;;;;;18.98;60.21;99979.56;4349410;32;20344;-93
2022/10/02 09:33:32;;;;;;;;;;;;;;;18.91;60.21;99965.03;4318995;33;20448;-91
2022/10/02 09:36:00;;;;;;;;;;;;;;;18.55;60.20;99973.44;4318712;33;20003;-93
2022/10/02 09:38:44;;;;;;;;;;;;;;;18.64;60.21;99967.59;4332842;32;20750;-93
2022/10/02 09:41:16;;;;;;;;;;;;;;;18.84;60.21;99958.47;4336556;33;19998;-91
2022/10/02 09:44:18;;;;;;;;;;;;;;;18.74;60.21;99967.91;4350081;32;19956;-93
2022/10/02 09:46:51;;;;;;;;;;;;;;;18.83;60.21;99949.72;4318919;33;20434;-92
2022/10/02 09:49:27;;;;;;;;;;;;;;;19.04;60.22;99957.22;4334801;33;19998;-91
2022/10/02 09:52:03;;;;;;;;;;;;;;;19.00;60.21;99961.84;4324881;33;20602;-91
2022/10/02 09:54:34;;;;;;;;;;;;;;;19.31;60.24;99953.66;4325005;33;19991;-92
2022/10/02 09:57:16;;;;;;;;;;;;;;;19.33;60.24;99957.03;4350435;33;19988;-89
2022/10/02 09:59:41;;;;;;;;;;;;;;;19.41;60.25;99958.34;4337334;33;19979;-92
2022/10/02 10:02:16;;;;;;;;;;;;;;;19.39;60.25;99957.56;4337197;33;19975;-93
2022/10/02 10:04:47;;;;;;;;;;;;;;;19.02;60.22;99954.69;4324926;33;20014;-95
2022/10/02 10:07:16;;;;;;;;;;;;;;;19.12;60.23;99939.09;4338254;33;19982;-91
2022/10/02 10:09:48;;;;;;;;;;;;;;;19.32;60.24;99936.00;4339163;33;20668;-91
2022/10/02 10:12:20;;;;;;;;;;;;;;;19.74;60.25;99932.37;4324932;33;19998;-93
2022/10/02 10:14:49;;;;;;;;;;;;;;;19.93;60.27;99930.19;4324829;33;20006;-93
2022/10/02 10:17:40;;;;;;;;;;;;;;;20.06;60.27;99935.47;4350648;33;19987;-93
2022/10/02 10:20:22;;;;;;;;;;;;;;;19.96;60.27;99938.84;4331778;33;20002;-94
2022/10/02 10:22:50;;;;;;;;;;;;;;;19.99;60.27;99943.94;4325934;33;19970;-93
2022/10/02 10:25:20;;;;;;;;;;;;;;;19.97;60.27;99935.28;4336660;33;20371;-93
2022/10/02 10:27:54;;;;;;;;;;;;;;;20.30;60.28;99932.94;4337927;33;20003;-93
2022/10/02 10:30:22;;;;;;;;;;;;;;;20.25;60.29;99921.84;4338570;33;20325;-89
2022/10/02 10:33:00;;;;;;;;;;;;;;;19.94;60.27;99915.19;4331874;32;19961;-93
2022/10/02 10:35:30;;;;;;;;;;;;;;;19.80;60.26;99934.59;4339310;32;19982;-95
2022/10/02 10:41:30;;;;;;;;;;;;;;;20.02;60.27;99917.28;4353021;33;19984;-93
2022/10/02 10:44:13;;;;;;;;;;;;;;;20.21;60.28;99917.72;4319959;33;19976;-92
2022/10/02 10:46:49;;;;;;;;;;;;;;;20.46;60.29;99915.09;4319871;33;20000;-92
2022/10/02 10:49:38;;;;;;;;;;;;;;;20.21;60.28;99915.94;4327564;33;20001;-94
2022/10/02 10:52:12;;;;;;;;;;;;;;;20.29;60.29;99925.13;4347902;33;19972;-93
2022/10/02 10:54:56;;;;;;;;;;;;;;;20.29;60.29;99919.84;4337601;33;19994;-94
2022/10/02 10:57:34;;;;;;;;;;;;;;;20.04;60.28;99916.25;4337104;33;19987;-94
2022/10/02 11:00:19;;;;;;;;;;;;;;;19.96;60.27;99923.00;4336716;33;19991;-93
2022/10/02 11:02:47;;;;;;;;;;;;;;;19.84;60.27;99927.31;4325079;33;19991;-93
2022/10/02 11:05:31;;;;;;;;;;;;;;;19.78;60.27;99927.72;4337094;33;19968;-93
2022/10/02 11:08:01;;;;;;;;;;;;;;;19.63;60.26;99932.22;4336414;33;20019;-92
2022/10/02 11:10:38;;;;;;;;;;;;;;;19.51;60.25;99938.31;4337099;33;20011;-92
2022/10/02 11:13:13;;;;;;;;;;;;;;;19.59;60.25;99934.22;4326795;33;20070;-96
2022/10/02 11:15:44;;;;;;;;;;;;;;;19.66;60.26;99931.22;4339138;33;19975;-92
2022/10/02 11:18:30;;;;;;;;;;;;;;;19.83;60.26;99944.97;4340909;33;19964;-91
2022/10/02 11:20:55;;;;;;;;;;;;;;;19.84;60.26;99944.00;4341576;33;20010;-94
2022/10/02 11:23:23;;;;;;;;;;;;;;;19.45;60.24;99922.88;4347336;33;19987;-91
2022/10/02 11:25:59;;;;;;;;;;;;;;;19.50;60.25;99934.81;4349309;33;20002;-93
2022/10/02 11:28:43;;;;;;;;;;;;;;;19.43;60.25;99932.69;4326840;33;20003;-93
2022/10/02 11:31:17;;;;;;;;;;;;;;;19.20;60.23;99931.53;4337916;33;19988;-91
2022/10/02 11:33:43;;;;;;;;;;;;;;;19.11;60.22;99932.97;4325132;33;19979;-95
2022/10/02 11:36:28;;;;;;;;;;;;;;;19.32;60.25;99926.31;4351347;33;19971;-94
2022/10/02 11:39:03;;;;;;;;;;;;;;;19.14;60.23;99927.50;4337707;33;20333;-93
2022/10/02 11:41:42;;;;;;;;;;;;;;;19.09;60.23;99924.31;4337594;33;20430;-93
2022/10/02 11:44:28;;;;;;;;;;;;;;;19.15;60.23;99905.44;4351305;33;20741;-94
2022/10/02 11:47:13;;;;;;;;;;;;;;;19.30;60.24;99909.72;4326474;33;19975;-94
2022/10/02 11:50:09;;;;;;;;;;;;;;;19.12;60.23;99924.09;4335081;33;20013;-94
2022/10/02 11:52:53;;;;;;;;;;;;;;;19.33;60.24;99913.94;4350314;32;20644;-93
2022/10/02 11:55:28;;;;;;;;;;;;;;;19.52;60.25;99906.53;4352511;32;20414;-93
2022/10/02 11:57:57;;;;;;;;;;;;;;;19.61;60.25;99918.28;4326867;33;20022;-93
2022/10/02 12:00:28;;;;;;;;;;;;;;;19.80;60.27;99912.63;4354782;32;20006;-92
2022/10/02 12:02:57;;;;;;;;;;;;;;;19.53;60.25;99905.59;4352222;32;20002;-95
2022/10/02 12:05:30;;;;;;;;;;;;;;;19.84;60.27;99925.50;4350757;33;20004;-96
2022/10/02 12:07:57;;;;;;;;;;;;;;;20.03;60.28;99914.53;4342699;32;19975;-92
2022/10/02 12:10:41;;;;;;;;;;;;;;;19.74;60.26;99932.37;4356332;32;20337;-93
2022/10/02 12:13:25;;;;;;;;;;;;;;;19.53;60.25;99931.13;4350013;32;20063;-93
2022/10/02 12:15:55;;;;;;;;;;;;;;;19.30;60.24;99925.56;4337688;33;19980;-92
2022/10/02 12:18:38;;;;;;;;;;;;;;;19.27;60.24;99919.63;4337193;33;20079;-95
2022/10/02 12:26:59;;;;;;;;;;;;;;;19.15;60.23;99910.72;4342641;33;19966;-95
2022/10/02 12:29:45;;;;;;;;;;;;;;;18.98;60.22;99903.06;4327439;32;19991;-94
2022/10/02 12:32:29;;;;;;;;;;;;;;;19.07;60.24;99894.53;4332008;33;19987;-91
2022/10/02 12:35:26;;;;;;;;;;;;;;;19.18;60.23;99885.94;4349452;32;20003;-95
2022/10/02 12:38:04;;;;;;;;;;;;;;;19.22;60.25;99890.91;4323635;32;19999;-92
2022/10/02 12:40:32;;;;;;;;;;;;;;;19.19;60.23;99877.94;4304511;33;20002;-92
2022/10/02 12:43:27;;;;;;;;;;;;;;;18.89;60.22;99882.53;4326853;32;20007;-94
2022/10/02 12:45:54;;;;;;;;;;;;;;;18.74;60.21;99875.62;4347184;33;19959;-92
2022/10/02 12:48:20;;;;;;;;;;;;;;;18.78;60.22;99877.09;4336373;33;20051;-93
2022/10/02 12:50:53;;;;;;;;;;;;;;;18.89;60.22;99879.87;4336447;33;20002;-91
2022/10/02 12:53:34;;;;;;;;;;;;;;;18.94;60.23;99869.91;4321608;33;20098;-94
2022/10/02 12:56:18;;;;;;;;;;;;;;;18.84;60.23;99876.72;4342930;33;20763;-94
2022/10/02 12:58:56;;;;;;;;;;;;;;;18.92;60.22;99871.78;4338542;32;20063;-93
2022/10/02 13:01:22;;;;;;;;;;;;;;;19.00;60.23;99862.44;4330701;33;20629;-93
2022/10/02 13:03:56;;;;;;;;;;;;;;;18.86;60.22;99856.34;4338268;32;20014;-94
2022/10/02 13:06:21;;;;;;;;;;;;;;;18.89;60.22;99850.88;4336819;33;19999;-93
2022/10/02 13:09:04;;;;;;;;;;;;;;;19.09;60.24;99841.66;4336088;33;19995;-91
2022/10/02 13:11:47;;;;;;;;;;;;;;;19.07;60.22;99847.03;4327745;33;19988;-94
2022/10/02 13:14:21;;;;;;;;;;;;;;;19.10;60.23;99844.19;4327061;33;19991;-93
2022/10/02 13:16:56;;;;;;;;;;;;;;;18.99;60.22;99842.28;4323735;32;19991;-93
2022/10/02 13:19:32;;;;;;;;;;;;;;;19.36;60.24;99826.63;4348477;32;20035;-92
2022/10/02 13:22:16;;;;;;;;;;;;;;;19.54;60.26;99830.72;4341938;32;19997;-91
2022/10/02 13:24:48;;;;;;;;;;;;;;;19.63;60.26;99831.88;4315869;33;20003;-93
2022/10/02 13:27:21;;;;;;;;;;;;;;;19.57;60.26;99832.31;4324511;32;20003;-92
2022/10/02 13:29:56;;;;;;;;;;;;;;;19.49;60.25;99824.03;4346090;32;19960;-94
2022/10/02 13:32:41;;;;;;;;;;;;;;;19.27;60.24;99827.25;4359800;32;19967;-91
2022/10/02 13:35:21;;;;;;;;;;;;;;;19.23;60.24;99821.34;4360737;32;19956;-91
2022/10/02 13:37:54;;;;;;;;;;;;;;;19.09;60.23;99825.84;4350818;33;19968;-93
2022/10/02 13:40:21;;;;;;;;;;;;;;;19.21;60.24;99825.87;4349976;33;20029;-92
2022/10/02 13:42:53;;;;;;;;;;;;;;;19.15;60.23;99822.78;4322409;33;19956;-93
2022/10/02 13:45:21;;;;;;;;;;;;;;;19.16;60.23;99822.69;4347306;33;20031;-92
2022/10/02 13:48:05;;;;;;;;;;;;;;;19.35;60.24;99810.91;4335798;33;20781;-91
2022/10/02 13:51:05;;;;;;;;;;;;;;;19.11;60.24;99805.47;4359952;32;19993;-91
2022/10/02 13:53:49;;;;;;;;;;;;;;;19.17;60.24;99805.94;4324660;33;19984;-89